Time;durP1;ratioP1;P1;durP2;ratioP2;P2;SDS_P1;SDS_P2;PMS_P1;PMS_P2;Temp;Humidity;BMP_temperature;BMP_pressure;BME280_temperature;BME280_humidity;BME280_pressure;Samples;Min_cycle;Max_cycle;Signal;HPM_P1;HPM_P2
2022/04/16 00:00:15;;;;;;;27.93;17.50;;;5.70;68.70;;;;;;5072851;28;20229;-59
2022/04/16 00:02:42;;;;;;;26.67;16.63;;;5.60;86.00;;;;;;5072928;28;20665;-59
2022/04/16 00:05:09;;;;;;;28.07;17.87;;;5.60;95.20;;;;;;5072842;28;20213;-58
2022/04/16 00:07:36;;;;;;;26.53;17.57;;;5.60;99.90;;;;;;5072932;28;20233;-59
2022/04/16 00:10:04;;;;;;;35.10;18.40;;;5.50;99.90;;;;;;5073165;28;20621;-59
2022/04/16 00:12:31;;;;;;;26.60;17.37;;;5.50;99.90;;;;;;5072957;28;20258;-58
2022/04/16 00:14:58;;;;;;;33.40;16.23;;;5.50;99.90;;;;;;5072465;28;20342;-58
2022/04/16 00:17:25;;;;;;;28.10;16.87;;;5.60;99.90;;;;;;5072385;28;20634;-54
2022/04/16 00:19:51;;;;;;;28.93;16.93;;;5.60;99.90;;;;;;5072307;28;20225;-54
2022/04/16 00:22:18;;;;;;;27.40;16.77;;;5.60;99.90;;;;;;5072476;28;20272;-56
2022/04/16 00:24:46;;;;;;;25.57;16.37;;;5.60;99.90;;;;;;5072630;28;20213;-54
2022/04/16 00:27:14;;;;;;;26.17;16.50;;;5.60;99.90;;;;;;5072186;28;20216;-56
2022/04/16 00:29:41;;;;;;;27.57;16.87;;;5.60;99.90;;;;;;5075896;28;20217;-59
2022/04/16 00:32:08;;;;;;;24.63;16.40;;;5.60;99.90;;;;;;5075053;28;20239;-59
2022/04/16 00:34:35;;;;;;;28.20;16.97;;;5.60;99.90;;;;;;5072891;28;20201;-59
2022/04/16 00:37:02;;;;;;;25.80;16.33;;;5.60;99.90;;;;;;5071901;28;20280;-59
2022/04/16 00:39:29;;;;;;;26.60;15.80;;;5.60;99.90;;;;;;5072662;28;20211;-59
2022/04/16 00:41:56;;;;;;;25.07;15.70;;;5.50;99.90;;;;;;5072305;28;20225;-59
2022/04/16 00:44:25;;;;;;;24.67;16.50;;;5.50;99.90;;;;;;5072040;28;20209;-58
2022/04/16 00:46:51;;;;;;;24.43;16.43;;;5.50;99.90;;;;;;5071693;28;20201;-58
2022/04/16 00:49:18;;;;;;;24.13;16.97;;;5.50;99.90;;;;;;5071828;28;20226;-58
2022/04/16 00:51:46;;;;;;;26.60;16.40;;;5.40;99.90;;;;;;5072004;28;20208;-55
2022/04/16 00:54:13;;;;;;;25.87;15.73;;;5.40;99.90;;;;;;5071946;28;20237;-58
2022/04/16 00:56:40;;;;;;;24.20;14.73;;;5.40;99.90;;;;;;5071788;28;20209;-57
2022/04/16 00:59:07;;;;;;;24.37;17.10;;;5.30;98.50;;;;;;5071596;28;20229;-56
2022/04/16 01:01:35;;;;;;;27.00;16.90;;;5.30;95.40;;;;;;5070606;28;20290;-59
2022/04/16 01:04:02;;;;;;;26.63;15.93;;;5.30;92.40;;;;;;5071789;28;20201;-59
2022/04/16 01:06:36;;;;;;;26.87;17.17;;;5.20;90.10;;;;;;5071695;28;20278;-61
2022/04/16 01:09:03;;;;;;;25.33;16.23;;;5.20;81.90;;;;;;5071871;28;20225;-61
2022/04/16 01:11:32;;;;;;;25.53;16.40;;;5.20;78.40;;;;;;5071343;28;20205;-61
2022/04/16 01:13:59;;;;;;;24.47;16.63;;;5.10;75.40;;;;;;5071587;28;20230;-61
2022/04/16 01:16:27;;;;;;;24.33;15.97;;;5.10;68.10;;;;;;5071676;28;20201;-60
2022/04/16 01:18:55;;;;;;;25.57;17.77;;;5.10;64.80;;;;;;5071595;28;20299;-61
2022/04/16 01:21:22;;;;;;;29.27;16.97;;;5.00;62.20;;;;;;5071384;28;20575;-61
2022/04/16 01:23:50;;;;;;;24.67;16.23;;;5.00;60.00;;;;;;5071661;28;20501;-61
2022/04/16 01:26:16;;;;;;;26.63;16.27;;;5.00;58.30;;;;;;5070965;28;20208;-59
2022/04/16 01:28:44;;;;;;;27.67;17.53;;;5.00;57.90;;;;;;5071351;28;21025;-61
2022/04/16 01:31:10;;;;;;;25.10;15.73;;;5.00;55.30;;;;;;5071610;28;20540;-61
2022/04/16 01:33:37;;;;;;;29.07;16.83;;;5.00;54.70;;;;;;5071174;28;20451;-60
2022/04/16 01:36:05;;;;;;;27.40;18.07;;;5.00;56.30;;;;;;5071095;28;20497;-61
2022/04/16 01:38:31;;;;;;;29.07;18.13;;;5.00;61.40;;;;;;5071012;28;20534;-59
2022/04/16 01:41:00;;;;;;;28.53;18.27;;;5.00;64.90;;;;;;5071266;28;20228;-61
2022/04/16 01:43:29;;;;;;;26.77;17.60;;;5.00;69.80;;;;;;5071055;28;20929;-62
2022/04/16 01:45:56;;;;;;;31.03;20.20;;;5.00;76.60;;;;;;5071203;28;20459;-60
2022/04/16 01:48:27;;;;;;;28.83;18.27;;;5.00;90.30;;;;;;5071111;28;20225;-60
2022/04/16 01:50:53;;;;;;;27.50;18.30;;;5.00;93.40;;;;;;5071415;28;20228;-61
2022/04/16 01:53:21;;;;;;;29.70;19.07;;;5.00;96.30;;;;;;5071301;28;20568;-61
2022/04/16 01:55:47;;;;;;;29.57;19.13;;;5.00;99.80;;;;;;5071208;28;20837;-61
2022/04/16 01:58:16;;;;;;;32.50;18.77;;;5.00;99.90;;;;;;5071134;28;20270;-61
2022/04/16 02:00:43;;;;;;;30.67;19.53;;;5.00;99.90;;;;;;5070970;28;20549;-61
2022/04/16 02:03:10;;;;;;;30.17;19.03;;;5.00;99.90;;;;;;5071127;28;20461;-57
2022/04/16 02:05:37;;;;;;;31.37;19.20;;;5.00;99.90;;;;;;5070939;28;20564;-61
2022/04/16 02:08:04;;;;;;;30.40;20.67;;;4.90;99.90;;;;;;5070625;28;20749;-60
2022/04/16 02:10:31;;;;;;;27.47;19.07;;;4.90;99.90;;;;;;5071062;28;20447;-61
2022/04/16 02:12:58;;;;;;;31.53;19.70;;;4.90;99.90;;;;;;5073147;28;20209;-59
2022/04/16 02:15:26;;;;;;;31.77;19.63;;;4.80;99.90;;;;;;5074785;28;20643;-60
2022/04/16 02:17:53;;;;;;;30.00;18.83;;;4.80;99.90;;;;;;5074446;28;20471;-60
2022/04/16 02:20:20;;;;;;;31.87;18.40;;;4.80;99.90;;;;;;5074921;28;20455;-61
2022/04/16 02:22:48;;;;;;;30.00;18.50;;;4.80;99.90;;;;;;5074511;28;20458;-61
2022/04/16 02:25:16;;;;;;;33.30;20.33;;;4.80;99.90;;;;;;5075048;28;20871;-61
2022/04/16 02:27:44;;;;;;;35.17;19.87;;;4.70;99.90;;;;;;5074363;28;20478;-60
2022/04/16 02:30:13;;;;;;;37.63;21.83;;;4.60;99.90;;;;;;5074728;28;20466;-59
2022/04/16 02:32:43;;;;;;;35.50;21.70;;;4.60;99.90;;;;;;5074508;28;20533;-60
2022/04/16 02:35:13;;;;;;;38.40;21.33;;;4.60;99.90;;;;;;5074421;28;20497;-61
2022/04/16 02:37:40;;;;;;;32.83;20.00;;;4.70;99.90;;;;;;5074107;28;20554;-61
2022/04/16 02:40:07;;;;;;;35.07;21.67;;;4.70;99.90;;;;;;5074030;28;20959;-61
2022/04/16 02:42:35;;;;;;;35.57;22.80;;;4.70;99.90;;;;;;5074388;28;20539;-61
2022/04/16 02:47:47;;;;;;;35.30;20.80;;;4.80;99.90;;;;;;5073821;28;20442;-61
2022/04/16 02:50:15;;;;;;;34.87;20.83;;;4.80;99.90;;;;;;5074363;28;20450;-61
2022/04/16 02:52:44;;;;;;;33.20;20.47;;;4.80;99.90;;;;;;5075345;28;20443;-61
2022/04/16 02:55:11;;;;;;;33.63;19.40;;;4.80;99.90;;;;;;5074877;28;20605;-61
2022/04/16 02:57:37;;;;;;;37.80;22.17;;;4.80;99.90;;;;;;5074375;28;20466;-61
2022/04/16 03:00:05;;;;;;;38.03;21.90;;;4.80;99.90;;;;;;5073901;28;20479;-59
2022/04/16 03:02:32;;;;;;;39.70;21.60;;;4.80;99.90;;;;;;5073930;28;20903;-59
2022/04/16 03:05:00;;;;;;;38.37;21.57;;;4.80;99.90;;;;;;5073752;28;20504;-61
2022/04/16 03:07:27;;;;;;;38.60;22.40;;;4.90;99.90;;;;;;5073538;28;20225;-61
2022/04/16 03:09:53;;;;;;;35.77;21.57;;;4.90;99.90;;;;;;5073854;28;20455;-58
2022/04/16 03:12:20;;;;;;;40.00;23.60;;;4.90;99.90;;;;;;5073865;28;20447;-59
2022/04/16 03:17:33;;;;;;;40.40;22.83;;;4.90;99.90;;;;;;5042008;28;20533;-60
2022/04/16 03:20:04;;;;;;;33.70;21.30;;;5.00;99.90;;;;;;5073900;28;20209;-61
2022/04/16 03:22:31;;;;;;;34.33;20.83;;;5.00;99.90;;;;;;5073619;28;20248;-61
2022/04/16 03:24:58;;;;;;;40.17;22.57;;;5.00;99.90;;;;;;5072587;28;20458;-60
2022/04/16 03:27:25;;;;;;;40.83;23.23;;;5.00;99.90;;;;;;5072792;28;20528;-59
2022/04/16 03:29:51;;;;;;;37.93;23.10;;;5.00;99.90;;;;;;5073586;28;20584;-61
2022/04/16 03:32:18;;;;;;;42.07;23.50;;;5.00;99.90;;;;;;5073554;28;20492;-60
2022/04/16 03:34:44;;;;;;;42.83;23.80;;;5.10;99.90;;;;;;5073594;28;20830;-62
2022/04/16 03:37:12;;;;;;;42.97;23.77;;;5.00;99.90;;;;;;5072995;28;20255;-61
2022/04/16 03:39:39;;;;;;;51.20;24.53;;;4.90;99.90;;;;;;5073329;28;20824;-61
2022/04/16 03:42:06;;;;;;;47.77;25.27;;;4.90;99.90;;;;;;5073392;28;20493;-59
2022/04/16 03:44:33;;;;;;;52.00;25.73;;;4.90;99.90;;;;;;5073283;28;20455;-61
2022/04/16 03:46:59;;;;;;;53.67;26.50;;;4.90;99.90;;;;;;5073079;28;20565;-61
2022/04/16 03:49:26;;;;;;;48.13;27.20;;;4.90;99.90;;;;;;5074352;28;20451;-61
2022/04/16 03:51:52;;;;;;;56.97;27.97;;;5.00;99.90;;;;;;5080368;28;20469;-60
2022/04/16 04:00:03;;;;;;;51.40;28.70;;;5.20;99.90;;;;;;5072720;28;20426;-61
2022/04/16 04:02:31;;;;;;;63.23;30.23;;;5.30;99.90;;;;;;5073068;28;20490;-61
2022/04/16 04:04:58;;;;;;;55.47;30.50;;;5.30;99.90;;;;;;5072612;28;20447;-61
2022/04/16 04:07:26;;;;;;;59.33;30.77;;;5.30;99.90;;;;;;5072795;28;20532;-61
2022/04/16 04:09:54;;;;;;;60.33;30.97;;;5.40;99.90;;;;;;5073046;28;20209;-61
2022/04/16 04:12:21;;;;;;;63.30;30.23;;;5.40;99.90;;;;;;5072586;28;20447;-60
2022/04/16 04:14:48;;;;;;;54.57;29.47;;;5.50;99.90;;;;;;5072884;28;20235;-61
2022/04/16 04:17:15;;;;;;;55.70;27.97;;;5.40;99.90;;;;;;5072052;28;20319;-61
2022/04/16 04:19:43;;;;;;;55.40;28.53;;;5.30;99.90;;;;;;5072580;28;20513;-61
2022/04/16 04:22:12;;;;;;;58.10;29.30;;;5.30;99.90;;;;;;5072388;28;20491;-61
2022/04/16 04:24:40;;;;;;;59.03;30.63;;;5.30;99.90;;;;;;5072608;28;20209;-62
2022/04/16 04:27:08;;;;;;;54.37;29.37;;;5.40;99.90;;;;;;5072184;28;20209;-61
2022/04/16 04:29:36;;;;;;;54.37;30.87;;;5.40;99.90;;;;;;5072596;28;20448;-62
2022/04/16 04:32:03;;;;;;;57.97;30.23;;;5.40;99.90;;;;;;5072123;28;20498;-61
2022/04/16 04:34:30;;;;;;;61.37;30.20;;;5.40;99.90;;;;;;5072260;28;20658;-62
2022/04/16 04:36:56;;;;;;;62.30;31.33;;;5.50;99.90;;;;;;5071894;28;20869;-62
2022/04/16 04:39:23;;;;;;;59.43;30.37;;;5.50;99.90;;;;;;5072098;28;20578;-61
2022/04/16 04:41:50;;;;;;;64.17;32.17;;;5.50;99.90;;;;;;5072083;28;20217;-61
2022/04/16 04:44:18;;;;;;;65.93;30.83;;;5.50;99.90;;;;;;5071994;28;20456;-62
2022/04/16 04:46:45;;;;;;;64.23;32.70;;;5.60;99.90;;;;;;5072123;28;20528;-62
2022/04/16 04:49:12;;;;;;;60.27;31.97;;;5.50;99.90;;;;;;5071641;28;21043;-62
2022/04/16 04:51:38;;;;;;;69.37;33.17;;;5.50;99.90;;;;;;5072028;28;20529;-62
2022/04/16 04:54:06;;;;;;;65.10;32.57;;;5.50;99.90;;;;;;5071967;28;20824;-62
2022/04/16 04:56:33;;;;;;;74.77;33.87;;;5.50;99.90;;;;;;5071557;28;20530;-62
2022/04/16 04:59:00;;;;;;;77.90;35.57;;;5.60;99.90;;;;;;5071565;28;20225;-61
2022/04/16 05:01:29;;;;;;;73.80;33.80;;;5.60;99.90;;;;;;5071778;28;20227;-61
2022/04/16 05:03:55;;;;;;;74.27;35.80;;;5.70;99.90;;;;;;5071953;28;20209;-62
2022/04/16 05:06:22;;;;;;;72.47;33.87;;;5.70;99.90;;;;;;5071235;28;20205;-61
2022/04/16 05:08:49;;;;;;;79.73;35.00;;;5.70;99.90;;;;;;5071725;28;20603;-61
2022/04/16 05:11:16;;;;;;;74.30;35.73;;;5.80;99.90;;;;;;5071415;28;20241;-62
2022/04/16 05:13:42;;;;;;;76.07;35.43;;;5.90;99.90;;;;;;5071583;28;20210;-60
2022/04/16 05:16:09;;;;;;;75.67;35.00;;;5.90;99.90;;;;;;5071296;28;20209;-60
2022/04/16 05:18:37;;;;;;;81.73;36.30;;;5.80;99.90;;;;;;5071534;28;20284;-62
2022/04/16 05:21:04;;;;;;;78.47;34.77;;;5.80;99.90;;;;;;5071400;28;20279;-61
2022/04/16 05:23:30;;;;;;;77.83;36.27;;;5.80;99.90;;;;;;5071436;28;20203;-62
2022/04/16 05:25:57;;;;;;;85.77;37.57;;;5.80;99.90;;;;;;5071096;28;20217;-61
2022/04/16 05:28:24;;;;;;;77.73;36.10;;;5.70;99.90;;;;;;5071554;28;20237;-61
2022/04/16 05:30:54;;;;;;;78.80;35.73;;;5.80;99.90;;;;;;5071430;28;20694;-62
2022/04/16 05:36:04;;;;;;;85.93;37.73;;;5.80;99.90;;;;;;5070751;28;20200;-61
2022/04/16 05:38:31;;;;;;;86.07;36.77;;;5.80;99.90;;;;;;5071296;28;20269;-60
2022/04/16 05:40:58;;;;;;;83.23;36.90;;;5.90;99.90;;;;;;5071646;28;20201;-61
2022/04/16 05:43:25;;;;;;;86.43;37.53;;;5.90;99.90;;;;;;5071461;28;20222;-60
2022/04/16 05:45:52;;;;;;;89.77;36.73;;;6.00;99.90;;;;;;5071108;28;20211;-61
2022/04/16 05:48:19;;;;;;;82.53;34.80;;;6.00;99.90;;;;;;5070738;28;20607;-61
2022/04/16 05:50:46;;;;;;;92.13;37.60;;;6.10;99.90;;;;;;5063087;28;20208;-61
2022/04/16 05:53:15;;;;;;;85.27;37.37;;;6.10;99.90;;;;;;5051023;28;20212;-62
2022/04/16 05:55:46;;;;;;;94.93;39.87;;;6.20;99.90;;;;;;5066625;28;20692;-61
2022/04/16 05:58:13;;;;;;;95.00;41.13;;;6.20;99.90;;;;;;5071653;28;20782;-60
2022/04/16 06:00:40;;;;;;;94.13;38.90;;;6.20;99.90;;;;;;5071303;28;20669;-59
2022/04/16 06:03:07;;;;;;;95.53;39.40;;;6.30;99.90;;;;;;5071132;28;20227;-60
2022/04/16 06:05:34;;;;;;;92.93;37.10;;;6.40;99.90;;;;;;5070995;28;20205;-61
2022/04/16 06:08:01;;;;;;;81.60;35.43;;;6.40;99.90;;;;;;5070671;28;20787;-60
2022/04/16 06:10:29;;;;;;;88.37;37.03;;;6.50;99.90;;;;;;5071337;28;20209;-59
2022/04/16 06:12:56;;;;;;;90.83;36.30;;;6.60;99.90;;;;;;5071114;28;20210;-60
2022/04/16 06:15:23;;;;;;;85.53;36.10;;;6.70;99.90;;;;;;5071365;28;20207;-60
2022/04/16 06:17:50;;;;;;;85.37;37.63;;;6.70;99.90;;;;;;5070713;28;20234;-61
2022/04/16 06:20:17;;;;;;;81.23;34.80;;;6.80;99.90;;;;;;5070773;28;20258;-58
2022/04/16 06:22:43;;;;;;;80.13;32.90;;;7.00;99.90;;;;;;5070813;28;20226;-58
2022/04/16 06:25:10;;;;;;;75.53;34.73;;;7.00;99.90;;;;;;5070784;28;20273;-59
2022/04/16 06:27:39;;;;;;;71.87;32.43;;;7.10;99.90;;;;;;5070681;28;20236;-57
2022/04/16 06:30:09;;;;;;;65.33;33.23;;;7.10;99.90;;;;;;5070896;28;20211;-59
2022/04/16 06:32:36;;;;;;;65.40;31.90;;;7.30;99.90;;;;;;5070908;28;20205;-60
2022/04/16 06:35:05;;;;;;;74.67;33.23;;;7.40;99.90;;;;;;5071003;28;20216;-59
2022/04/16 06:37:32;;;;;;;69.27;32.13;;;7.40;99.90;;;;;;5070527;28;20661;-60
2022/04/16 06:39:58;;;;;;;64.27;30.33;;;7.50;99.90;;;;;;5070995;28;20216;-59
2022/04/16 06:42:25;;;;;;;43.73;25.63;;;7.50;99.90;;;;;;5070655;28;20250;-61
2022/04/16 06:44:53;;;;;;;41.67;25.23;;;7.50;99.90;;;;;;5070945;28;20254;-61
2022/04/16 06:47:20;;;;;;;38.73;22.63;;;7.50;99.90;;;;;;5070089;28;20303;-60
2022/04/16 06:49:46;;;;;;;31.20;18.87;;;7.60;99.90;;;;;;5070750;28;20212;-60
2022/04/16 06:52:13;;;;;;;27.53;18.97;;;7.60;99.90;;;;;;5070748;28;20209;-60
2022/04/16 06:54:42;;;;;;;35.43;19.10;;;7.70;99.90;;;;;;5071044;28;20236;-61
2022/04/16 06:57:08;;;;;;;26.27;17.07;;;7.70;99.90;;;;;;5070397;28;20205;-60
2022/04/16 06:59:37;;;;;;;30.23;19.23;;;7.80;99.90;;;;;;5071515;28;20209;-60
2022/04/16 07:02:05;;;;;;;26.70;18.87;;;7.90;99.90;;;;;;5074049;28;20227;-60
2022/04/16 07:04:32;;;;;;;25.07;16.03;;;8.00;99.90;;;;;;5074403;28;20346;-59
2022/04/16 07:06:59;;;;;;;26.33;15.97;;;8.00;99.90;;;;;;5074104;28;20254;-59
2022/04/16 07:09:27;;;;;;;24.10;16.17;;;8.20;99.90;;;;;;5059987;28;20205;-60
2022/04/16 07:11:53;;;;;;;27.13;16.87;;;8.30;99.90;;;;;;5073704;28;20290;-61
2022/04/16 07:14:20;;;;;;;22.40;14.73;;;8.30;99.90;;;;;;5074427;28;20208;-64
2022/04/16 07:16:47;;;;;;;28.30;15.90;;;8.30;99.90;;;;;;5074641;28;20212;-63
2022/04/16 07:19:15;;;;;;;26.27;15.97;;;8.30;99.90;;;;;;5075079;28;20224;-63
2022/04/16 07:21:42;;;;;;;27.20;15.77;;;8.50;99.90;;;;;;5073567;28;20212;-63
2022/04/16 07:24:08;;;;;;;23.47;15.27;;;8.50;99.90;;;;;;5073779;28;20208;-64
2022/04/16 07:26:35;;;;;;;23.67;14.10;;;8.70;99.90;;;;;;5073446;28;20612;-64
2022/04/16 07:29:02;;;;;;;22.27;14.70;;;8.80;99.90;;;;;;5073606;28;20225;-63
2022/04/16 07:31:28;;;;;;;21.13;13.53;;;8.90;99.90;;;;;;5074088;28;20258;-64
2022/04/16 07:33:55;;;;;;;20.70;13.57;;;8.90;99.90;;;;;;5073747;28;20698;-64
2022/04/16 07:36:23;;;;;;;22.00;13.63;;;9.00;99.90;;;;;;5073514;28;20263;-64
2022/04/16 07:38:50;;;;;;;18.83;13.23;;;9.00;99.90;;;;;;5073179;28;20226;-63
2022/04/16 07:41:17;;;;;;;20.37;13.33;;;9.20;99.90;;;;;;5073691;28;20205;-64
2022/04/16 07:43:43;;;;;;;23.03;13.60;;;9.20;95.00;;;;;;5073227;28;20887;-64
2022/04/16 07:46:10;;;;;;;17.93;12.20;;;9.20;1.00;;;;;;5073346;28;20230;-64
2022/04/16 07:48:37;;;;;;;21.93;12.83;;;9.30;99.90;;;;;;5073200;28;20719;-64
2022/04/16 07:51:04;;;;;;;18.97;13.43;;;9.30;99.90;;;;;;5072911;28;20220;-63
2022/04/16 07:53:33;;;;;;;19.03;12.87;;;9.30;99.90;;;;;;5073435;28;20254;-64
2022/04/16 07:55:59;;;;;;;18.47;12.60;;;9.30;1.00;;;;;;5072718;28;20259;-64
2022/04/16 07:58:26;;;;;;;20.67;13.53;;;9.40;99.90;;;;;;5073472;28;20229;-64
2022/04/16 08:00:53;;;;;;;19.53;12.90;;;9.50;1.00;;;;;;5073265;28;20211;-64
2022/04/16 08:03:20;;;;;;;20.47;12.30;;;9.70;1.00;;;;;;5073315;28;20286;-64
2022/04/16 08:05:47;;;;;;;18.20;12.10;;;9.90;1.00;;;;;;5073255;28;20202;-64
2022/04/16 08:08:14;;;;;;;17.33;12.63;;;10.00;99.90;;;;;;5072562;28;20234;-64
2022/04/16 08:10:42;;;;;;;18.37;12.23;;;10.10;99.90;;;;;;5072296;28;20211;-63
2022/04/16 08:13:09;;;;;;;20.63;13.20;;;10.00;99.90;;;;;;5072805;28;20202;-64
2022/04/16 08:15:35;;;;;;;18.00;12.47;;;10.00;72.90;;;;;;5073080;28;20208;-64
2022/04/16 08:18:02;;;;;;;18.43;12.27;;;10.20;99.90;;;;;;5072405;28;20229;-65
2022/04/16 08:20:29;;;;;;;18.33;12.43;;;10.40;99.90;;;;;;5073050;28;20210;-64
2022/04/16 08:22:55;;;;;;;14.57;10.33;;;10.30;1.00;;;;;;5072310;28;20232;-64
2022/04/16 08:28:08;;;;;;;15.93;10.77;;;10.50;99.90;;;;;;5072312;28;20227;-64
2022/04/16 08:30:35;;;;;;;18.00;11.77;;;10.50;1.00;;;;;;5072599;28;20268;-64
2022/04/16 08:33:02;;;;;;;15.27;9.87;;;10.70;1.00;;;;;;5072763;28;20203;-65
2022/04/16 08:35:29;;;;;;;13.70;9.73;;;10.70;1.00;;;;;;5072184;28;20322;-63
2022/04/16 08:37:56;;;;;;;15.07;10.07;;;10.40;99.90;;;;;;5071830;28;20227;-65
2022/04/16 08:40:22;;;;;;;17.10;10.73;;;10.50;1.00;;;;;;5072163;28;20262;-64
2022/04/16 08:42:50;;;;;;;16.13;10.83;;;10.90;99.90;;;;;;5072464;28;20270;-65
2022/04/16 08:45:18;;;;;;;15.40;10.40;;;11.10;99.90;;;;;;5072292;28;20257;-65
2022/04/16 08:47:45;;;;;;;15.67;10.30;;;11.20;99.90;;;;;;5071671;28;20286;-65
2022/04/16 08:50:14;;;;;;;13.10;8.97;;;11.20;99.90;;;;;;5072202;28;20215;-64
2022/04/16 08:52:42;;;;;;;13.53;9.27;;;11.20;1.00;;;;;;5071888;28;20255;-64
2022/04/16 08:55:10;;;;;;;12.53;8.50;;;11.20;4.60;;;;;;5072189;28;20278;-64
2022/04/16 08:57:38;;;;;;;13.27;9.57;;;11.10;1.00;;;;;;5071516;28;20238;-64
2022/04/16 09:00:06;;;;;;;10.47;6.37;;;10.80;1.00;;;;;;5071850;28;20789;-64
2022/04/16 09:02:34;;;;;;;10.20;5.53;;;10.70;4.20;;;;;;5071834;28;20273;-64
2022/04/16 09:05:06;;;;;;;9.67;7.10;;;10.70;1.00;;;;;;5072136;28;20211;-65
2022/04/16 09:07:43;;;;;;;10.37;6.63;;;10.80;94.50;;;;;;5071770;28;20224;-66
2022/04/16 09:10:11;;;;;;;14.37;9.20;;;10.60;1.00;;;;;;5072043;28;20212;-64
2022/04/16 09:12:39;;;;;;;13.73;9.17;;;10.50;1.00;;;;;;5072052;28;20204;-65
2022/04/16 09:15:07;;;;;;;15.63;9.33;;;10.40;4.10;;;;;;5071626;28;20240;-64
2022/04/16 09:17:35;;;;;;;14.43;8.57;;;10.30;1.00;;;;;;5071993;28;20226;-64
2022/04/16 09:20:02;;;;;;;14.43;9.63;;;10.30;1.00;;;;;;5072230;28;20206;-64
2022/04/16 09:22:33;;;;;;;14.27;9.87;;;10.60;96.90;;;;;;5070884;28;20215;-64
2022/04/16 09:25:00;;;;;;;11.00;7.53;;;11.00;5.30;;;;;;5071790;28;20223;-64
2022/04/16 09:27:28;;;;;;;13.40;9.70;;;11.20;1.00;;;;;;5071448;28;20274;-64
2022/04/16 09:29:55;;;;;;;13.37;8.37;;;10.90;1.00;;;;;;5071625;28;20233;-63
2022/04/16 09:32:24;;;;;;;12.23;7.93;;;10.60;1.00;;;;;;5071730;28;20209;-64
2022/04/16 09:34:52;;;;;;;14.37;8.37;;;10.40;1.00;;;;;;5071383;28;20791;-65
2022/04/16 09:37:19;;;;;;;9.97;8.03;;;10.30;1.00;;;;;;5071092;28;20227;-64
2022/04/16 09:39:45;;;;;;;9.93;7.33;;;10.70;1.00;;;;;;5071482;28;20577;-65
2022/04/16 09:42:12;;;;;;;11.43;7.97;;;11.00;1.00;;;;;;5071387;28;20212;-64
2022/04/16 09:44:39;;;;;;;10.63;7.33;;;11.40;1.00;;;;;;5071663;28;20643;-64
2022/04/16 09:47:07;;;;;;;11.53;8.60;;;11.80;1.00;;;;;;5071276;28;20626;-64
2022/04/16 09:49:37;;;;;;;11.80;8.00;;;11.80;99.90;;;;;;5071403;28;20217;-65
2022/04/16 09:52:07;;;;;;;15.20;8.27;;;12.00;99.90;;;;;;5071873;28;20204;-64
2022/04/16 09:54:35;;;;;;;9.07;5.53;;;11.90;99.90;;;;;;5071236;28;20205;-65
2022/04/16 09:57:03;;;;;;;8.03;5.50;;;11.80;99.90;;;;;;5071026;28;20544;-65
2022/04/16 09:59:35;;;;;;;9.10;6.47;;;11.70;99.90;;;;;;5071688;28;20212;-64
2022/04/16 10:02:03;;;;;;;13.83;7.30;;;11.80;99.90;;;;;;5071527;28;20238;-64
2022/04/16 10:04:30;;;;;;;10.70;7.27;;;11.70;99.90;;;;;;5071510;28;20243;-64
2022/04/16 10:06:57;;;;;;;9.33;6.27;;;11.60;99.90;;;;;;5070863;28;20254;-64
2022/04/16 10:09:27;;;;;;;8.40;5.77;;;11.70;99.90;;;;;;5071164;28;20728;-64
2022/04/16 10:14:47;;;;;;;6.73;5.00;;;11.60;99.90;;;;;;5071547;28;20200;-64
2022/04/16 10:17:29;;;;;;;9.17;6.20;;;11.60;99.90;;;;;;5070745;28;20204;-64
2022/04/16 10:20:07;;;;;;;8.53;5.60;;;11.90;99.90;;;;;;5071619;28;20189;-64
2022/04/16 10:22:34;;;;;;;8.50;5.57;;;12.00;99.90;;;;;;5071007;28;20311;-64
2022/04/16 10:25:03;;;;;;;8.77;6.50;;;12.20;99.90;;;;;;5071019;28;20229;-62
2022/04/16 10:27:31;;;;;;;8.10;5.43;;;12.20;99.90;;;;;;5070786;28;20221;-61
2022/04/16 10:30:00;;;;;;;10.67;6.47;;;12.50;99.90;;;;;;5071017;28;20205;-62
2022/04/16 10:32:38;;;;;;;11.43;6.13;;;12.20;99.90;;;;;;5063638;28;20300;-65
2022/04/16 10:35:06;;;;;;;6.77;5.33;;;12.30;99.90;;;;;;5074854;28;20264;-65
2022/04/16 10:37:39;;;;;;;7.97;5.33;;;12.40;99.90;;;;;;5074571;28;20627;-65
2022/04/16 10:40:18;;;;;;;6.53;4.97;;;12.20;99.90;;;;;;5074561;28;20291;-63
2022/04/16 10:42:48;;;;;;;10.80;6.37;;;12.10;99.90;;;;;;5074064;28;20278;-62
2022/04/16 10:45:16;;;;;;;7.80;5.40;;;12.10;99.90;;;;;;5073983;28;20649;-65
2022/04/16 10:47:43;;;;;;;8.60;5.70;;;12.10;99.90;;;;;;5073662;28;20225;-65
2022/04/16 10:50:15;;;;;;;9.50;6.30;;;12.10;99.90;;;;;;5074456;28;20213;-60
2022/04/16 10:52:53;;;;;;;7.20;5.03;;;12.20;99.90;;;;;;5073830;28;20251;-62
2022/04/16 10:55:25;;;;;;;6.57;5.40;;;12.50;99.90;;;;;;5073886;28;20674;-62
2022/04/16 10:57:59;;;;;;;7.57;5.93;;;12.60;99.90;;;;;;5073719;28;20316;-62
2022/04/16 11:00:37;;;;;;;7.00;5.17;;;12.60;99.90;;;;;;5074083;28;20212;-60
2022/04/16 11:03:08;;;;;;;9.83;5.43;;;12.70;99.90;;;;;;5073485;28;20684;-62
2022/04/16 11:05:36;;;;;;;7.87;5.97;;;12.40;99.90;;;;;;5073738;28;20291;-60
2022/04/16 11:08:05;;;;;;;8.53;5.47;;;12.20;99.90;;;;;;5073745;28;20321;-63
2022/04/16 11:10:33;;;;;;;9.20;6.53;;;12.40;99.90;;;;;;5073797;28;20630;-62
2022/04/16 11:13:01;;;;;;;7.27;5.27;;;12.60;99.90;;;;;;5073635;28;20258;-61
2022/04/16 11:15:28;;;;;;;5.77;5.03;;;12.70;99.90;;;;;;5073490;28;20228;-59
2022/04/16 11:17:55;;;;;;;4.97;4.13;;;12.70;99.90;;;;;;5073219;28;20726;-61
2022/04/16 11:20:23;;;;;;;8.07;5.60;;;12.70;99.90;;;;;;5073403;28;20612;-61
2022/04/16 11:22:50;;;;;;;6.90;4.30;;;12.30;99.90;;;;;;5073049;28;20707;-62
2022/04/16 11:25:16;;;;;;;6.77;5.03;;;12.70;99.90;;;;;;5073086;28;20225;-66
2022/04/16 11:36:07;;;;;;;4.97;3.60;;;12.80;99.90;;;;;;5072934;28;20200;-62
2022/04/16 11:38:35;;;;;;;6.30;5.07;;;12.90;99.90;;;;;;5073500;28;20291;-62
2022/04/16 11:41:04;;;;;;;7.13;4.90;;;12.80;99.90;;;;;;5073032;28;20270;-61
2022/04/16 11:43:33;;;;;;;5.93;3.47;;;12.80;99.90;;;;;;5073324;28;20225;-61
2022/04/16 11:46:02;;;;;;;6.83;4.77;;;12.90;99.90;;;;;;5072464;28;20207;-63
2022/04/16 11:48:29;;;;;;;5.77;3.97;;;12.90;99.90;;;;;;5073896;28;20640;-62
2022/04/16 11:50:56;;;;;;;5.37;4.50;;;13.30;99.90;;;;;;5073187;28;20209;-62
2022/04/16 11:53:22;;;;;;;6.33;4.40;;;13.70;99.90;;;;;;5072875;28;20744;-61
2022/04/16 11:55:50;;;;;;;4.93;3.80;;;13.80;99.90;;;;;;5073066;28;20561;-62
2022/04/16 11:58:17;;;;;;;5.73;4.10;;;13.60;99.90;;;;;;5072824;28;20225;-61
2022/04/16 12:00:54;;;;;;;6.73;4.23;;;13.60;99.90;;;;;;5072974;28;20292;-61
2022/04/16 12:03:21;;;;;;;5.57;4.30;;;13.50;99.90;;;;;;5072247;28;20303;-62
2022/04/16 12:05:48;;;;;;;6.53;4.20;;;13.50;99.90;;;;;;5073064;28;20238;-61
2022/04/16 12:08:16;;;;;;;4.77;3.73;;;13.70;99.90;;;;;;5071897;28;20601;-61
2022/04/16 12:10:46;;;;;;;5.53;3.43;;;13.80;99.90;;;;;;5072717;28;20216;-61
2022/04/16 12:13:13;;;;;;;5.57;3.83;;;13.90;99.90;;;;;;5072422;28;20215;-61
2022/04/16 12:15:42;;;;;;;4.13;3.40;;;13.70;99.90;;;;;;5072769;28;20215;-63
2022/04/16 12:18:15;;;;;;;4.27;3.03;;;13.70;99.90;;;;;;5071316;28;20323;-62
2022/04/16 12:20:43;;;;;;;5.33;3.50;;;13.60;99.90;;;;;;5072164;28;20682;-62
2022/04/16 12:23:13;;;;;;;5.40;3.17;;;13.50;99.90;;;;;;5072008;28;20257;-63
2022/04/16 12:25:40;;;;;;;4.07;2.80;;;13.50;99.90;;;;;;5072234;28;20215;-63
2022/04/16 12:28:11;;;;;;;5.60;3.30;;;13.70;99.90;;;;;;5072006;28;20226;-60
2022/04/16 12:30:39;;;;;;;5.83;3.10;;;13.90;99.90;;;;;;5065390;28;20244;-62
2022/04/16 12:33:07;;;;;;;4.60;2.73;;;13.80;99.90;;;;;;5049760;28;20220;-63
2022/04/16 12:35:36;;;;;;;5.43;2.90;;;13.80;99.90;;;;;;5062258;28;20581;-62
2022/04/16 12:38:04;;;;;;;4.20;2.47;;;13.80;99.90;;;;;;5070879;28;20286;-62
2022/04/16 12:40:33;;;;;;;4.60;2.70;;;13.70;99.90;;;;;;5072106;28;20211;-62
2022/04/16 12:43:01;;;;;;;4.33;2.40;;;13.70;99.90;;;;;;5071918;28;20208;-63
2022/04/16 12:45:30;;;;;;;4.60;3.20;;;13.90;99.90;;;;;;5071491;28;20268;-62
2022/04/16 12:47:57;;;;;;;3.93;2.80;;;13.90;99.90;;;;;;5071413;28;20232;-63
2022/04/16 12:50:24;;;;;;;6.13;3.10;;;13.80;99.90;;;;;;5071931;28;20273;-62
2022/04/16 12:52:53;;;;;;;3.83;2.43;;;13.80;99.90;;;;;;5071789;28;20219;-61
2022/04/16 12:55:20;;;;;;;4.40;2.77;;;14.00;99.90;;;;;;5071421;28;20208;-62
2022/04/16 12:57:47;;;;;;;3.77;3.03;;;14.10;99.90;;;;;;5071482;28;20264;-63
2022/04/16 13:00:16;;;;;;;3.07;2.40;;;14.10;99.90;;;;;;5071341;28;20827;-61
2022/04/16 13:02:44;;;;;;;4.40;2.20;;;13.90;99.90;;;;;;5071181;28;20307;-60
2022/04/16 13:05:12;;;;;;;2.73;2.07;;;13.90;99.90;;;;;;5071343;28;20288;-60
2022/04/16 13:07:40;;;;;;;2.83;2.30;;;14.10;99.90;;;;;;5071431;28;20228;-62
2022/04/16 13:10:10;;;;;;;3.00;2.10;;;14.40;99.90;;;;;;5071289;28;20294;-61